sensor_id;sensor_type;location;lat;lon;timestamp;P1;durP1;ratioP1;P2;durP2;ratioP2
20697;SDS011;10508;50.956;4.640;2023-06-24T00:02:05;11.13;;;5.05;;
20697;SDS011;10508;50.956;4.640;2023-06-24T00:04:31;11.13;;;5.30;;
20697;SDS011;10508;50.956;4.640;2023-06-24T00:06:58;6.15;;;3.97;;
20697;SDS011;10508;50.956;4.640;2023-06-24T00:09:28;9.70;;;4.47;;
20697;SDS011;10508;50.956;4.640;2023-06-24T00:11:55;7.30;;;4.30;;
20697;SDS011;10508;50.956;4.640;2023-06-24T00:14:21;8.27;;;4.53;;
20697;SDS011;10508;50.956;4.640;2023-06-24T00:16:49;7.10;;;4.07;;
20697;SDS011;10508;50.956;4.640;2023-06-24T00:19:18;8.90;;;4.90;;
20697;SDS011;10508;50.956;4.640;2023-06-24T00:21:44;8.15;;;4.72;;
20697;SDS011;10508;50.956;4.640;2023-06-24T00:24:10;7.28;;;4.20;;
20697;SDS011;10508;50.956;4.640;2023-06-24T00:26:36;8.32;;;4.63;;
20697;SDS011;10508;50.956;4.640;2023-06-24T00:29:02;8.30;;;4.55;;
20697;SDS011;10508;50.956;4.640;2023-06-24T00:31:28;6.28;;;4.50;;
20697;SDS011;10508;50.956;4.640;2023-06-24T00:33:54;7.15;;;4.55;;
20697;SDS011;10508;50.956;4.640;2023-06-24T00:36:20;9.48;;;4.82;;
20697;SDS011;10508;50.956;4.640;2023-06-24T00:38:46;9.15;;;4.63;;
20697;SDS011;10508;50.956;4.640;2023-06-24T00:41:14;6.85;;;4.15;;
20697;SDS011;10508;50.956;4.640;2023-06-24T00:43:40;7.78;;;4.30;;
20697;SDS011;10508;50.956;4.640;2023-06-24T00:46:06;8.85;;;4.18;;
20697;SDS011;10508;50.956;4.640;2023-06-24T00:48:32;9.55;;;4.40;;
20697;SDS011;10508;50.956;4.640;2023-06-24T00:50:58;8.05;;;4.53;;
20697;SDS011;10508;50.956;4.640;2023-06-24T00:53:24;9.70;;;4.00;;
20697;SDS011;10508;50.956;4.640;2023-06-24T00:55:50;6.60;;;4.50;;
20697;SDS011;10508;50.956;4.640;2023-06-24T00:58:17;7.22;;;4.72;;
20697;SDS011;10508;50.956;4.640;2023-06-24T01:00:46;8.45;;;4.82;;
20697;SDS011;10508;50.956;4.640;2023-06-24T01:03:13;6.55;;;4.60;;
20697;SDS011;10508;50.956;4.640;2023-06-24T01:05:40;6.75;;;4.25;;
20697;SDS011;10508;50.956;4.640;2023-06-24T01:08:06;8.70;;;5.05;;
20697;SDS011;10508;50.956;4.640;2023-06-24T01:10:32;10.32;;;4.70;;
20697;SDS011;10508;50.956;4.640;2023-06-24T01:12:58;7.82;;;4.50;;
20697;SDS011;10508;50.956;4.640;2023-06-24T01:15:24;7.72;;;4.57;;
20697;SDS011;10508;50.956;4.640;2023-06-24T01:27:52;8.30;;;4.28;;
20697;SDS011;10508;50.956;4.640;2023-06-24T01:33:11;10.38;;;4.20;;
20697;SDS011;10508;50.956;4.640;2023-06-24T01:35:35;7.85;;;4.55;;
20697;SDS011;10508;50.956;4.640;2023-06-24T01:38:03;9.80;;;4.25;;
20697;SDS011;10508;50.956;4.640;2023-06-24T01:40:33;7.05;;;4.47;;
20697;SDS011;10508;50.956;4.640;2023-06-24T01:43:02;7.60;;;4.50;;
20697;SDS011;10508;50.956;4.640;2023-06-24T01:45:42;7.07;;;3.92;;
20697;SDS011;10508;50.956;4.640;2023-06-24T01:48:11;12.50;;;4.15;;
20697;SDS011;10508;50.956;4.640;2023-06-24T01:50:39;8.30;;;4.22;;
20697;SDS011;10508;50.956;4.640;2023-06-24T01:53:07;6.68;;;4.30;;
20697;SDS011;10508;50.956;4.640;2023-06-24T01:55:33;5.40;;;3.78;;
20697;SDS011;10508;50.956;4.640;2023-06-24T01:58:00;10.63;;;4.03;;
20697;SDS011;10508;50.956;4.640;2023-06-24T02:00:27;6.65;;;3.60;;
20697;SDS011;10508;50.956;4.640;2023-06-24T02:02:54;6.85;;;4.00;;
20697;SDS011;10508;50.956;4.640;2023-06-24T02:05:20;7.07;;;3.47;;
20697;SDS011;10508;50.956;4.640;2023-06-24T02:07:47;9.40;;;4.07;;
20697;SDS011;10508;50.956;4.640;2023-06-24T02:10:14;7.55;;;3.90;;
20697;SDS011;10508;50.956;4.640;2023-06-24T02:12:41;6.75;;;3.80;;
20697;SDS011;10508;50.956;4.640;2023-06-24T02:15:07;5.93;;;3.50;;
20697;SDS011;10508;50.956;4.640;2023-06-24T02:17:34;7.60;;;3.85;;
20697;SDS011;10508;50.956;4.640;2023-06-24T02:20:01;6.22;;;3.45;;
20697;SDS011;10508;50.956;4.640;2023-06-24T02:22:29;6.93;;;4.00;;
20697;SDS011;10508;50.956;4.640;2023-06-24T02:24:55;6.47;;;3.33;;
20697;SDS011;10508;50.956;4.640;2023-06-24T02:27:21;8.68;;;3.78;;
20697;SDS011;10508;50.956;4.640;2023-06-24T02:29:47;7.93;;;3.88;;
20697;SDS011;10508;50.956;4.640;2023-06-24T02:32:13;6.78;;;3.28;;
20697;SDS011;10508;50.956;4.640;2023-06-24T02:34:40;5.20;;;3.38;;
20697;SDS011;10508;50.956;4.640;2023-06-24T02:37:06;5.70;;;3.33;;
20697;SDS011;10508;50.956;4.640;2023-06-24T02:39:32;8.95;;;3.42;;
20697;SDS011;10508;50.956;4.640;2023-06-24T02:41:58;5.75;;;3.33;;
20697;SDS011;10508;50.956;4.640;2023-06-24T02:44:24;5.32;;;3.35;;
20697;SDS011;10508;50.956;4.640;2023-06-24T02:46:50;6.40;;;4.18;;
20697;SDS011;10508;50.956;4.640;2023-06-24T02:49:16;6.07;;;3.72;;
20697;SDS011;10508;50.956;4.640;2023-06-24T02:51:43;8.05;;;4.20;;
20697;SDS011;10508;50.956;4.640;2023-06-24T02:54:10;8.40;;;4.07;;
20697;SDS011;10508;50.956;4.640;2023-06-24T02:56:37;7.85;;;3.78;;
20697;SDS011;10508;50.956;4.640;2023-06-24T02:59:08;6.53;;;3.97;;
20697;SDS011;10508;50.956;4.640;2023-06-24T03:01:35;6.22;;;3.47;;
20697;SDS011;10508;50.956;4.640;2023-06-24T03:04:04;7.35;;;3.90;;
20697;SDS011;10508;50.956;4.640;2023-06-24T03:06:30;7.32;;;3.17;;
20697;SDS011;10508;50.956;4.640;2023-06-24T03:08:57;6.40;;;3.80;;
20697;SDS011;10508;50.956;4.640;2023-06-24T03:11:25;6.35;;;3.92;;
20697;SDS011;10508;50.956;4.640;2023-06-24T03:13:53;6.40;;;3.90;;
20697;SDS011;10508;50.956;4.640;2023-06-24T03:16:19;7.30;;;4.32;;
20697;SDS011;10508;50.956;4.640;2023-06-24T03:18:45;6.85;;;4.07;;
20697;SDS011;10508;50.956;4.640;2023-06-24T03:21:11;7.85;;;3.75;;
20697;SDS011;10508;50.956;4.640;2023-06-24T03:23:37;6.00;;;3.72;;
20697;SDS011;10508;50.956;4.640;2023-06-24T03:26:04;7.22;;;3.95;;
20697;SDS011;10508;50.956;4.640;2023-06-24T03:28:32;5.45;;;3.45;;
20697;SDS011;10508;50.956;4.640;2023-06-24T03:30:58;5.70;;;3.50;;
20697;SDS011;10508;50.956;4.640;2023-06-24T03:33:24;8.32;;;3.72;;
20697;SDS011;10508;50.956;4.640;2023-06-24T03:35:51;8.00;;;4.07;;
20697;SDS011;10508;50.956;4.640;2023-06-24T03:38:17;8.65;;;4.03;;
20697;SDS011;10508;50.956;4.640;2023-06-24T03:40:43;11.57;;;3.65;;
20697;SDS011;10508;50.956;4.640;2023-06-24T03:43:10;9.40;;;3.88;;
20697;SDS011;10508;50.956;4.640;2023-06-24T03:45:36;5.95;;;3.30;;
20697;SDS011;10508;50.956;4.640;2023-06-24T03:48:02;6.57;;;3.88;;
20697;SDS011;10508;50.956;4.640;2023-06-24T03:50:28;8.77;;;4.55;;
20697;SDS011;10508;50.956;4.640;2023-06-24T03:52:54;9.90;;;4.25;;
20697;SDS011;10508;50.956;4.640;2023-06-24T03:55:20;7.20;;;3.80;;
20697;SDS011;10508;50.956;4.640;2023-06-24T03:57:46;9.25;;;3.40;;
20697;SDS011;10508;50.956;4.640;2023-06-24T04:00:12;6.93;;;3.47;;
20697;SDS011;10508;50.956;4.640;2023-06-24T04:02:41;6.75;;;3.78;;
20697;SDS011;10508;50.956;4.640;2023-06-24T04:05:07;5.38;;;3.15;;
20697;SDS011;10508;50.956;4.640;2023-06-24T04:07:33;6.78;;;3.00;;
20697;SDS011;10508;50.956;4.640;2023-06-24T04:10:01;4.55;;;2.85;;
20697;SDS011;10508;50.956;4.640;2023-06-24T04:12:28;7.95;;;3.70;;
20697;SDS011;10508;50.956;4.640;2023-06-24T04:14:54;9.23;;;3.10;;
20697;SDS011;10508;50.956;4.640;2023-06-24T04:17:20;7.45;;;4.10;;
20697;SDS011;10508;50.956;4.640;2023-06-24T04:19:46;10.10;;;4.35;;
20697;SDS011;10508;50.956;4.640;2023-06-24T04:22:12;6.78;;;3.65;;
20697;SDS011;10508;50.956;4.640;2023-06-24T04:24:38;5.97;;;3.97;;
20697;SDS011;10508;50.956;4.640;2023-06-24T04:27:07;6.20;;;3.33;;
20697;SDS011;10508;50.956;4.640;2023-06-24T04:29:34;6.75;;;3.40;;
20697;SDS011;10508;50.956;4.640;2023-06-24T04:32:00;12.88;;;4.18;;
20697;SDS011;10508;50.956;4.640;2023-06-24T04:34:26;7.00;;;3.33;;
20697;SDS011;10508;50.956;4.640;2023-06-24T04:36:52;8.70;;;3.60;;
20697;SDS011;10508;50.956;4.640;2023-06-24T04:39:18;7.45;;;3.58;;
20697;SDS011;10508;50.956;4.640;2023-06-24T04:41:44;8.82;;;3.90;;
20697;SDS011;10508;50.956;4.640;2023-06-24T04:44:11;7.72;;;3.75;;
20697;SDS011;10508;50.956;4.640;2023-06-24T04:46:37;5.93;;;3.47;;
20697;SDS011;10508;50.956;4.640;2023-06-24T04:49:04;8.82;;;3.40;;
20697;SDS011;10508;50.956;4.640;2023-06-24T04:51:30;10.38;;;3.72;;
20697;SDS011;10508;50.956;4.640;2023-06-24T04:53:57;5.85;;;3.40;;
20697;SDS011;10508;50.956;4.640;2023-06-24T04:56:23;6.35;;;3.80;;
20697;SDS011;10508;50.956;4.640;2023-06-24T04:58:49;6.65;;;3.42;;
20697;SDS011;10508;50.956;4.640;2023-06-24T05:01:15;12.30;;;3.47;;
20697;SDS011;10508;50.956;4.640;2023-06-24T05:03:41;7.82;;;3.20;;
20697;SDS011;10508;50.956;4.640;2023-06-24T05:06:07;6.72;;;3.20;;
20697;SDS011;10508;50.956;4.640;2023-06-24T05:08:33;6.53;;;3.50;;
20697;SDS011;10508;50.956;4.640;2023-06-24T05:10:59;6.28;;;3.10;;
20697;SDS011;10508;50.956;4.640;2023-06-24T05:13:27;5.13;;;3.30;;
20697;SDS011;10508;50.956;4.640;2023-06-24T05:15:53;8.27;;;3.72;;
20697;SDS011;10508;50.956;4.640;2023-06-24T05:18:19;6.25;;;3.00;;
20697;SDS011;10508;50.956;4.640;2023-06-24T05:20:45;6.20;;;3.00;;
20697;SDS011;10508;50.956;4.640;2023-06-24T05:23:11;9.98;;;3.47;;
20697;SDS011;10508;50.956;4.640;2023-06-24T05:25:37;6.22;;;2.70;;
20697;SDS011;10508;50.956;4.640;2023-06-24T05:28:03;11.48;;;2.88;;
20697;SDS011;10508;50.956;4.640;2023-06-24T05:30:29;12.40;;;3.15;;
20697;SDS011;10508;50.956;4.640;2023-06-24T05:32:55;8.75;;;3.00;;
20697;SDS011;10508;50.956;4.640;2023-06-24T05:35:21;11.32;;;3.88;;
20697;SDS011;10508;50.956;4.640;2023-06-24T05:37:47;8.02;;;3.00;;
20697;SDS011;10508;50.956;4.640;2023-06-24T05:40:13;6.70;;;3.00;;
20697;SDS011;10508;50.956;4.640;2023-06-24T05:42:39;8.48;;;3.40;;
20697;SDS011;10508;50.956;4.640;2023-06-24T05:45:05;5.88;;;2.92;;
20697;SDS011;10508;50.956;4.640;2023-06-24T05:47:32;10.65;;;2.90;;
20697;SDS011;10508;50.956;4.640;2023-06-24T05:49:58;5.75;;;2.95;;
20697;SDS011;10508;50.956;4.640;2023-06-24T05:52:24;5.80;;;2.72;;
20697;SDS011;10508;50.956;4.640;2023-06-24T05:54:50;8.40;;;3.25;;
20697;SDS011;10508;50.956;4.640;2023-06-24T05:57:16;4.63;;;2.47;;
20697;SDS011;10508;50.956;4.640;2023-06-24T05:59:42;5.15;;;2.60;;
20697;SDS011;10508;50.956;4.640;2023-06-24T06:02:08;4.75;;;2.60;;
20697;SDS011;10508;50.956;4.640;2023-06-24T06:04:34;4.57;;;2.45;;
20697;SDS011;10508;50.956;4.640;2023-06-24T06:07:00;6.55;;;2.55;;
20697;SDS011;10508;50.956;4.640;2023-06-24T06:09:26;9.10;;;3.13;;
20697;SDS011;10508;50.956;4.640;2023-06-24T06:11:52;4.30;;;2.30;;
20697;SDS011;10508;50.956;4.640;2023-06-24T06:14:18;5.18;;;3.05;;
20697;SDS011;10508;50.956;4.640;2023-06-24T06:16:44;4.18;;;2.10;;
20697;SDS011;10508;50.956;4.640;2023-06-24T06:19:10;7.85;;;3.15;;
20697;SDS011;10508;50.956;4.640;2023-06-24T06:21:36;5.00;;;2.78;;
20697;SDS011;10508;50.956;4.640;2023-06-24T06:24:03;7.70;;;2.42;;
20697;SDS011;10508;50.956;4.640;2023-06-24T06:26:29;7.18;;;2.65;;
20697;SDS011;10508;50.956;4.640;2023-06-24T06:28:55;5.47;;;2.72;;
20697;SDS011;10508;50.956;4.640;2023-06-24T06:31:21;6.15;;;2.50;;
20697;SDS011;10508;50.956;4.640;2023-06-24T06:33:47;7.10;;;2.50;;
20697;SDS011;10508;50.956;4.640;2023-06-24T06:36:13;4.32;;;2.50;;
20697;SDS011;10508;50.956;4.640;2023-06-24T06:38:40;7.00;;;2.78;;
20697;SDS011;10508;50.956;4.640;2023-06-24T06:41:06;4.45;;;2.60;;
20697;SDS011;10508;50.956;4.640;2023-06-24T06:43:33;4.97;;;2.47;;
20697;SDS011;10508;50.956;4.640;2023-06-24T06:45:59;4.60;;;2.30;;
20697;SDS011;10508;50.956;4.640;2023-06-24T06:48:26;4.00;;;2.25;;
20697;SDS011;10508;50.956;4.640;2023-06-24T06:50:52;4.78;;;2.03;;
20697;SDS011;10508;50.956;4.640;2023-06-24T06:53:18;6.15;;;2.45;;
20697;SDS011;10508;50.956;4.640;2023-06-24T06:55:44;6.05;;;2.00;;
20697;SDS011;10508;50.956;4.640;2023-06-24T06:58:10;4.97;;;1.98;;
20697;SDS011;10508;50.956;4.640;2023-06-24T07:00:36;3.97;;;2.15;;
20697;SDS011;10508;50.956;4.640;2023-06-24T07:03:02;6.22;;;2.10;;
20697;SDS011;10508;50.956;4.640;2023-06-24T07:05:28;4.93;;;2.22;;
20697;SDS011;10508;50.956;4.640;2023-06-24T07:07:54;4.75;;;2.67;;
20697;SDS011;10508;50.956;4.640;2023-06-24T07:10:20;4.47;;;2.40;;
20697;SDS011;10508;50.956;4.640;2023-06-24T07:12:46;6.50;;;2.65;;
20697;SDS011;10508;50.956;4.640;2023-06-24T07:15:12;4.53;;;2.30;;
20697;SDS011;10508;50.956;4.640;2023-06-24T07:17:39;4.72;;;2.30;;
20697;SDS011;10508;50.956;4.640;2023-06-24T07:20:05;3.75;;;1.95;;
20697;SDS011;10508;50.956;4.640;2023-06-24T07:22:31;5.25;;;1.98;;
20697;SDS011;10508;50.956;4.640;2023-06-24T07:24:57;3.35;;;2.08;;
20697;SDS011;10508;50.956;4.640;2023-06-24T07:27:23;4.80;;;2.28;;
20697;SDS011;10508;50.956;4.640;2023-06-24T07:29:49;4.57;;;2.20;;
20697;SDS011;10508;50.956;4.640;2023-06-24T07:32:15;4.55;;;1.75;;
20697;SDS011;10508;50.956;4.640;2023-06-24T07:34:41;8.07;;;3.53;;
20697;SDS011;10508;50.956;4.640;2023-06-24T07:37:07;3.80;;;2.17;;
20697;SDS011;10508;50.956;4.640;2023-06-24T07:39:33;5.13;;;2.33;;
20697;SDS011;10508;50.956;4.640;2023-06-24T07:41:59;4.43;;;2.42;;
20697;SDS011;10508;50.956;4.640;2023-06-24T07:44:25;3.58;;;2.00;;
20697;SDS011;10508;50.956;4.640;2023-06-24T07:46:51;3.92;;;2.60;;
20697;SDS011;10508;50.956;4.640;2023-06-24T07:49:18;3.40;;;2.58;;
20697;SDS011;10508;50.956;4.640;2023-06-24T07:51:44;4.47;;;2.53;;
20697;SDS011;10508;50.956;4.640;2023-06-24T07:54:10;3.13;;;1.92;;
20697;SDS011;10508;50.956;4.640;2023-06-24T07:56:36;3.58;;;2.30;;
20697;SDS011;10508;50.956;4.640;2023-06-24T07:59:02;4.18;;;2.13;;
20697;SDS011;10508;50.956;4.640;2023-06-24T08:01:28;8.48;;;1.92;;
20697;SDS011;10508;50.956;4.640;2023-06-24T08:03:54;3.40;;;2.10;;
20697;SDS011;10508;50.956;4.640;2023-06-24T08:06:20;5.53;;;1.50;;
20697;SDS011;10508;50.956;4.640;2023-06-24T08:08:46;3.08;;;1.80;;
20697;SDS011;10508;50.956;4.640;2023-06-24T08:11:13;5.35;;;2.58;;
20697;SDS011;10508;50.956;4.640;2023-06-24T08:13:39;2.85;;;2.00;;
20697;SDS011;10508;50.956;4.640;2023-06-24T08:16:05;3.78;;;1.90;;
20697;SDS011;10508;50.956;4.640;2023-06-24T08:18:31;2.40;;;1.85;;
20697;SDS011;10508;50.956;4.640;2023-06-24T08:20:58;4.90;;;1.90;;
20697;SDS011;10508;50.956;4.640;2023-06-24T08:23:24;3.75;;;1.83;;
20697;SDS011;10508;50.956;4.640;2023-06-24T08:25:50;3.08;;;2.03;;
20697;SDS011;10508;50.956;4.640;2023-06-24T08:28:16;4.07;;;1.80;;
20697;SDS011;10508;50.956;4.640;2023-06-24T08:30:42;3.70;;;1.73;;
20697;SDS011;10508;50.956;4.640;2023-06-24T08:33:08;5.03;;;2.90;;
20697;SDS011;10508;50.956;4.640;2023-06-24T08:35:34;3.38;;;1.98;;
20697;SDS011;10508;50.956;4.640;2023-06-24T08:38:00;9.55;;;1.90;;
20697;SDS011;10508;50.956;4.640;2023-06-24T08:40:26;4.53;;;1.77;;
20697;SDS011;10508;50.956;4.640;2023-06-24T08:42:53;2.30;;;1.70;;
20697;SDS011;10508;50.956;4.640;2023-06-24T08:45:20;3.05;;;1.55;;
20697;SDS011;10508;50.956;4.640;2023-06-24T08:47:47;4.85;;;1.67;;
20697;SDS011;10508;50.956;4.640;2023-06-24T08:50:13;2.75;;;1.58;;
20697;SDS011;10508;50.956;4.640;2023-06-24T08:52:42;2.40;;;1.40;;
20697;SDS011;10508;50.956;4.640;2023-06-24T08:55:08;5.57;;;1.85;;
20697;SDS011;10508;50.956;4.640;2023-06-24T08:57:36;2.88;;;1.30;;
20697;SDS011;10508;50.956;4.640;2023-06-24T09:00:02;3.17;;;1.38;;
20697;SDS011;10508;50.956;4.640;2023-06-24T09:02:30;1.88;;;1.35;;
20697;SDS011;10508;50.956;4.640;2023-06-24T09:04:57;2.45;;;1.65;;
20697;SDS011;10508;50.956;4.640;2023-06-24T09:07:27;3.05;;;1.58;;
20697;SDS011;10508;50.956;4.640;2023-06-24T09:09:53;4.18;;;1.58;;
20697;SDS011;10508;50.956;4.640;2023-06-24T09:12:20;2.13;;;1.30;;
20697;SDS011;10508;50.956;4.640;2023-06-24T09:14:49;3.40;;;1.70;;
20697;SDS011;10508;50.956;4.640;2023-06-24T09:17:15;5.60;;;1.65;;
20697;SDS011;10508;50.956;4.640;2023-06-24T09:19:41;2.75;;;1.52;;
20697;SDS011;10508;50.956;4.640;2023-06-24T09:22:08;2.80;;;1.48;;
20697;SDS011;10508;50.956;4.640;2023-06-24T09:24:41;2.35;;;1.58;;
20697;SDS011;10508;50.956;4.640;2023-06-24T09:27:07;2.90;;;1.38;;
20697;SDS011;10508;50.956;4.640;2023-06-24T09:29:33;2.28;;;1.48;;
20697;SDS011;10508;50.956;4.640;2023-06-24T09:31:59;4.60;;;1.73;;
20697;SDS011;10508;50.956;4.640;2023-06-24T09:34:26;8.30;;;1.73;;
20697;SDS011;10508;50.956;4.640;2023-06-24T09:36:53;1.80;;;1.20;;
20697;SDS011;10508;50.956;4.640;2023-06-24T09:39:20;1.88;;;1.33;;
20697;SDS011;10508;50.956;4.640;2023-06-24T09:41:58;3.33;;;1.67;;
20697;SDS011;10508;50.956;4.640;2023-06-24T09:44:25;2.67;;;1.60;;
20697;SDS011;10508;50.956;4.640;2023-06-24T09:46:52;3.25;;;1.58;;
20697;SDS011;10508;50.956;4.640;2023-06-24T09:49:18;2.05;;;1.40;;
20697;SDS011;10508;50.956;4.640;2023-06-24T09:51:45;1.75;;;1.35;;
20697;SDS011;10508;50.956;4.640;2023-06-24T09:54:12;2.47;;;1.50;;
20697;SDS011;10508;50.956;4.640;2023-06-24T09:56:45;1.85;;;1.20;;
20697;SDS011;10508;50.956;4.640;2023-06-24T09:59:13;1.40;;;1.10;;
20697;SDS011;10508;50.956;4.640;2023-06-24T10:01:40;2.35;;;1.33;;
20697;SDS011;10508;50.956;4.640;2023-06-24T10:04:07;1.92;;;1.33;;
20697;SDS011;10508;50.956;4.640;2023-06-24T10:06:33;2.35;;;1.45;;
20697;SDS011;10508;50.956;4.640;2023-06-24T10:09:00;3.22;;;1.50;;
20697;SDS011;10508;50.956;4.640;2023-06-24T10:11:26;1.88;;;1.10;;
20697;SDS011;10508;50.956;4.640;2023-06-24T10:13:52;4.72;;;1.73;;
20697;SDS011;10508;50.956;4.640;2023-06-24T10:16:19;2.78;;;1.50;;
20697;SDS011;10508;50.956;4.640;2023-06-24T10:18:46;2.03;;;0.90;;
20697;SDS011;10508;50.956;4.640;2023-06-24T10:21:12;1.73;;;1.23;;
20697;SDS011;10508;50.956;4.640;2023-06-24T10:26:24;3.65;;;1.45;;
20697;SDS011;10508;50.956;4.640;2023-06-24T10:44:50;1.63;;;1.25;;
20697;SDS011;10508;50.956;4.640;2023-06-24T10:47:16;2.40;;;1.48;;
20697;SDS011;10508;50.956;4.640;2023-06-24T10:49:42;2.97;;;1.10;;
20697;SDS011;10508;50.956;4.640;2023-06-24T10:52:09;2.95;;;1.60;;
20697;SDS011;10508;50.956;4.640;2023-06-24T10:54:36;4.55;;;1.02;;
20697;SDS011;10508;50.956;4.640;2023-06-24T10:57:03;3.75;;;1.20;;
20697;SDS011;10508;50.956;4.640;2023-06-24T10:59:39;2.15;;;1.20;;
20697;SDS011;10508;50.956;4.640;2023-06-24T11:02:07;4.47;;;1.30;;
20697;SDS011;10508;50.956;4.640;2023-06-24T11:04:33;2.20;;;1.30;;
20697;SDS011;10508;50.956;4.640;2023-06-24T11:07:00;4.13;;;1.10;;
20697;SDS011;10508;50.956;4.640;2023-06-24T11:09:26;3.88;;;1.10;;
20697;SDS011;10508;50.956;4.640;2023-06-24T11:11:52;2.97;;;1.40;;
20697;SDS011;10508;50.956;4.640;2023-06-24T11:14:21;2.95;;;1.00;;
20697;SDS011;10508;50.956;4.640;2023-06-24T11:16:47;1.98;;;1.20;;
20697;SDS011;10508;50.956;4.640;2023-06-24T11:19:13;2.28;;;1.20;;
20697;SDS011;10508;50.956;4.640;2023-06-24T11:21:39;4.93;;;1.15;;
20697;SDS011;10508;50.956;4.640;2023-06-24T11:24:05;1.30;;;1.00;;
20697;SDS011;10508;50.956;4.640;2023-06-24T11:26:32;4.65;;;1.40;;
20697;SDS011;10508;50.956;4.640;2023-06-24T11:28:58;2.00;;;1.20;;
20697;SDS011;10508;50.956;4.640;2023-06-24T11:31:27;2.17;;;1.40;;
20697;SDS011;10508;50.956;4.640;2023-06-24T11:33:53;1.45;;;1.10;;
20697;SDS011;10508;50.956;4.640;2023-06-24T11:36:20;2.38;;;1.30;;
20697;SDS011;10508;50.956;4.640;2023-06-24T11:38:46;3.08;;;1.60;;
20697;SDS011;10508;50.956;4.640;2023-06-24T11:41:12;2.22;;;1.20;;
20697;SDS011;10508;50.956;4.640;2023-06-24T11:43:45;2.28;;;1.25;;
20697;SDS011;10508;50.956;4.640;2023-06-24T11:46:24;1.80;;;1.20;;
20697;SDS011;10508;50.956;4.640;2023-06-24T11:48:50;2.70;;;1.52;;
20697;SDS011;10508;50.956;4.640;2023-06-24T11:51:16;1.48;;;1.10;;
20697;SDS011;10508;50.956;4.640;2023-06-24T11:53:43;2.60;;;1.30;;
20697;SDS011;10508;50.956;4.640;2023-06-24T11:56:10;2.78;;;1.42;;
20697;SDS011;10508;50.956;4.640;2023-06-24T11:58:36;2.40;;;1.40;;
20697;SDS011;10508;50.956;4.640;2023-06-24T12:01:02;1.58;;;1.38;;
20697;SDS011;10508;50.956;4.640;2023-06-24T12:03:47;2.17;;;1.10;;
20697;SDS011;10508;50.956;4.640;2023-06-24T12:06:13;2.90;;;1.58;;
20697;SDS011;10508;50.956;4.640;2023-06-24T12:08:39;3.42;;;1.50;;
20697;SDS011;10508;50.956;4.640;2023-06-24T12:11:05;3.35;;;1.67;;
20697;SDS011;10508;50.956;4.640;2023-06-24T12:13:31;3.13;;;1.30;;
20697;SDS011;10508;50.956;4.640;2023-06-24T12:15:57;1.75;;;1.35;;
20697;SDS011;10508;50.956;4.640;2023-06-24T12:18:23;2.72;;;1.38;;
20697;SDS011;10508;50.956;4.640;2023-06-24T12:20:49;2.05;;;1.33;;
20697;SDS011;10508;50.956;4.640;2023-06-24T12:23:15;2.40;;;1.58;;
20697;SDS011;10508;50.956;4.640;2023-06-24T12:25:41;1.50;;;1.25;;
20697;SDS011;10508;50.956;4.640;2023-06-24T12:28:07;2.08;;;1.23;;
20697;SDS011;10508;50.956;4.640;2023-06-24T12:30:33;2.10;;;1.35;;
20697;SDS011;10508;50.956;4.640;2023-06-24T12:33:00;12.13;;;1.63;;
20697;SDS011;10508;50.956;4.640;2023-06-24T12:35:26;3.00;;;1.60;;
20697;SDS011;10508;50.956;4.640;2023-06-24T12:37:53;2.58;;;1.40;;
20697;SDS011;10508;50.956;4.640;2023-06-24T12:40:19;3.67;;;1.83;;
20697;SDS011;10508;50.956;4.640;2023-06-24T12:42:45;2.60;;;1.35;;
20697;SDS011;10508;50.956;4.640;2023-06-24T12:45:11;2.47;;;1.80;;
20697;SDS011;10508;50.956;4.640;2023-06-24T12:47:38;2.22;;;1.42;;
20697;SDS011;10508;50.956;4.640;2023-06-24T12:50:04;2.00;;;1.52;;
20697;SDS011;10508;50.956;4.640;2023-06-24T12:52:31;2.45;;;1.63;;
20697;SDS011;10508;50.956;4.640;2023-06-24T12:54:58;2.97;;;1.50;;
20697;SDS011;10508;50.956;4.640;2023-06-24T12:57:24;1.73;;;1.48;;
20697;SDS011;10508;50.956;4.640;2023-06-24T12:59:49;2.30;;;1.23;;
20697;SDS011;10508;50.956;4.640;2023-06-24T13:02:15;5.32;;;1.88;;
20697;SDS011;10508;50.956;4.640;2023-06-24T13:04:41;3.00;;;1.35;;
20697;SDS011;10508;50.956;4.640;2023-06-24T13:07:07;2.83;;;1.40;;
20697;SDS011;10508;50.956;4.640;2023-06-24T13:09:34;1.30;;;0.98;;
20697;SDS011;10508;50.956;4.640;2023-06-24T13:12:05;1.80;;;1.30;;
20697;SDS011;10508;50.956;4.640;2023-06-24T13:14:33;2.20;;;1.40;;
20697;SDS011;10508;50.956;4.640;2023-06-24T13:16:59;1.50;;;1.23;;
20697;SDS011;10508;50.956;4.640;2023-06-24T13:19:25;3.15;;;1.50;;
20697;SDS011;10508;50.956;4.640;2023-06-24T13:22:08;3.00;;;1.63;;
20697;SDS011;10508;50.956;4.640;2023-06-24T13:24:34;2.08;;;1.42;;
20697;SDS011;10508;50.956;4.640;2023-06-24T13:27:00;2.30;;;1.60;;
20697;SDS011;10508;50.956;4.640;2023-06-24T13:29:26;2.40;;;1.52;;
20697;SDS011;10508;50.956;4.640;2023-06-24T13:31:52;1.92;;;1.25;;
20697;SDS011;10508;50.956;4.640;2023-06-24T13:34:18;2.28;;;1.48;;
20697;SDS011;10508;50.956;4.640;2023-06-24T13:36:44;3.75;;;1.45;;
20697;SDS011;10508;50.956;4.640;2023-06-24T13:39:12;2.38;;;1.42;;
20697;SDS011;10508;50.956;4.640;2023-06-24T13:41:38;4.13;;;1.63;;
20697;SDS011;10508;50.956;4.640;2023-06-24T13:44:04;1.30;;;1.20;;
20697;SDS011;10508;50.956;4.640;2023-06-24T13:46:31;2.35;;;1.30;;
20697;SDS011;10508;50.956;4.640;2023-06-24T13:48:58;2.42;;;1.33;;
20697;SDS011;10508;50.956;4.640;2023-06-24T13:51:24;4.50;;;1.75;;
20697;SDS011;10508;50.956;4.640;2023-06-24T13:53:50;2.70;;;1.50;;
20697;SDS011;10508;50.956;4.640;2023-06-24T13:56:17;2.55;;;1.45;;
20697;SDS011;10508;50.956;4.640;2023-06-24T13:58:43;4.93;;;1.50;;
20697;SDS011;10508;50.956;4.640;2023-06-24T14:01:09;2.05;;;1.40;;
20697;SDS011;10508;50.956;4.640;2023-06-24T14:03:35;3.53;;;1.63;;
20697;SDS011;10508;50.956;4.640;2023-06-24T14:06:02;2.10;;;1.35;;
20697;SDS011;10508;50.956;4.640;2023-06-24T14:08:28;3.67;;;1.30;;
20697;SDS011;10508;50.956;4.640;2023-06-24T14:10:55;3.28;;;1.50;;
20697;SDS011;10508;50.956;4.640;2023-06-24T14:13:21;2.17;;;1.40;;
20697;SDS011;10508;50.956;4.640;2023-06-24T14:15:47;2.72;;;1.50;;
20697;SDS011;10508;50.956;4.640;2023-06-24T14:18:13;1.70;;;1.30;;
20697;SDS011;10508;50.956;4.640;2023-06-24T14:20:39;1.80;;;1.40;;
20697;SDS011;10508;50.956;4.640;2023-06-24T14:23:05;1.77;;;1.30;;
20697;SDS011;10508;50.956;4.640;2023-06-24T14:25:31;2.75;;;1.52;;
20697;SDS011;10508;50.956;4.640;2023-06-24T14:27:57;3.63;;;1.70;;
20697;SDS011;10508;50.956;4.640;2023-06-24T14:30:23;3.30;;;1.50;;
20697;SDS011;10508;50.956;4.640;2023-06-24T14:32:49;2.53;;;1.60;;
20697;SDS011;10508;50.956;4.640;2023-06-24T14:35:15;5.07;;;1.60;;
20697;SDS011;10508;50.956;4.640;2023-06-24T14:37:41;3.28;;;1.70;;
20697;SDS011;10508;50.956;4.640;2023-06-24T14:40:08;1.73;;;1.42;;
20697;SDS011;10508;50.956;4.640;2023-06-24T14:42:35;2.42;;;1.60;;
20697;SDS011;10508;50.956;4.640;2023-06-24T14:45:01;3.85;;;1.58;;
20697;SDS011;10508;50.956;4.640;2023-06-24T14:47:27;3.35;;;1.88;;
20697;SDS011;10508;50.956;4.640;2023-06-24T14:49:53;3.05;;;1.45;;
20697;SDS011;10508;50.956;4.640;2023-06-24T14:52:19;2.13;;;1.38;;
20697;SDS011;10508;50.956;4.640;2023-06-24T14:54:48;2.58;;;1.67;;
20697;SDS011;10508;50.956;4.640;2023-06-24T14:57:14;3.13;;;1.60;;
20697;SDS011;10508;50.956;4.640;2023-06-24T14:59:41;2.88;;;1.80;;
20697;SDS011;10508;50.956;4.640;2023-06-24T15:02:07;2.58;;;1.52;;
20697;SDS011;10508;50.956;4.640;2023-06-24T15:04:35;2.97;;;1.55;;
20697;SDS011;10508;50.956;4.640;2023-06-24T15:07:01;3.08;;;1.73;;
20697;SDS011;10508;50.956;4.640;2023-06-24T15:09:27;1.92;;;1.40;;
20697;SDS011;10508;50.956;4.640;2023-06-24T15:11:53;3.83;;;1.75;;
20697;SDS011;10508;50.956;4.640;2023-06-24T15:14:19;1.65;;;1.20;;
20697;SDS011;10508;50.956;4.640;2023-06-24T15:16:45;2.40;;;1.70;;